createdAt,value
2018-07-11T00:01:07.858Z,13.50
2018-07-11T00:03:33.757Z,13.50
2018-07-11T00:05:59.684Z,13.50
2018-07-11T00:08:25.604Z,13.50
2018-07-11T00:10:51.510Z,13.40
2018-07-11T00:13:17.434Z,13.30
2018-07-11T00:15:43.330Z,13.30
2018-07-11T00:18:09.243Z,13.20
2018-07-11T00:20:35.142Z,13.10
2018-07-11T00:23:01.067Z,13.10
2018-07-11T00:25:26.970Z,13.10
2018-07-11T00:27:52.896Z,13.00
2018-07-11T00:30:18.802Z,13.00
2018-07-11T00:32:44.752Z,13.00
2018-07-11T00:35:10.654Z,13.00
2018-07-11T00:37:36.564Z,13.00
2018-07-11T00:40:02.491Z,13.00
2018-07-11T00:42:28.389Z,13.00
2018-07-11T00:44:54.304Z,12.90
2018-07-11T00:47:20.217Z,12.90
2018-07-11T00:49:46.887Z,13.00
2018-07-11T00:52:12.791Z,12.90
2018-07-11T00:54:38.749Z,13.00
2018-07-11T00:57:04.655Z,13.00
2018-07-11T00:59:30.560Z,12.90
2018-07-11T01:01:56.488Z,12.90
2018-07-11T01:04:22.403Z,12.90
2018-07-11T01:06:48.326Z,12.90
2018-07-11T01:09:14.226Z,12.90
2018-07-11T01:11:40.901Z,12.80
2018-07-11T01:14:06.827Z,12.80
2018-07-11T01:16:32.750Z,12.80
2018-07-11T01:18:58.654Z,12.80
2018-07-11T01:21:24.590Z,12.80
2018-07-11T01:23:50.494Z,12.70
2018-07-11T01:26:16.395Z,12.70
2018-07-11T01:28:43.079Z,12.60
2018-07-11T01:31:08.990Z,12.60
2018-07-11T01:33:34.921Z,12.60
2018-07-11T01:36:00.838Z,12.50
2018-07-11T01:38:26.784Z,12.50
2018-07-11T01:40:52.691Z,12.50
2018-07-11T01:43:18.604Z,12.60
2018-07-11T01:45:44.499Z,12.50
2018-07-11T01:48:10.431Z,12.50
2018-07-11T01:50:36.338Z,12.50
2018-07-11T01:53:02.237Z,12.40
2018-07-11T01:55:28.903Z,12.40
2018-07-11T01:57:54.805Z,12.40
2018-07-11T02:00:21.471Z,12.30
2018-07-11T02:02:47.366Z,12.30
2018-07-11T02:05:14.062Z,12.30
2018-07-11T02:07:39.974Z,12.30
2018-07-11T02:10:05.923Z,12.30
2018-07-11T02:12:31.838Z,12.20
2018-07-11T02:14:57.753Z,12.30
2018-07-11T02:17:23.706Z,12.20
2018-07-11T02:19:50.360Z,12.30
2018-07-11T02:22:16.286Z,12.30
2018-07-11T02:24:42.188Z,12.30
2018-07-11T02:27:08.851Z,12.30
2018-07-11T02:29:34.756Z,12.30
2018-07-11T02:32:01.407Z,12.40
2018-07-11T02:34:27.352Z,12.30
2018-07-11T02:36:53.276Z,12.40
2018-07-11T02:39:19.205Z,12.40
2018-07-11T02:41:45.132Z,12.40
2018-07-11T02:44:11.053Z,12.40
2018-07-11T02:46:36.955Z,12.40
2018-07-11T02:49:02.886Z,12.40
2018-07-11T02:51:28.781Z,12.40
2018-07-11T02:53:54.747Z,12.40
2018-07-11T02:56:20.658Z,12.40
2018-07-11T02:58:47.306Z,12.60
2018-07-11T03:01:13.231Z,12.50
2018-07-11T03:03:39.143Z,12.70
2018-07-11T03:06:05.072Z,12.80
2018-07-11T03:08:30.977Z,12.80
2018-07-11T03:10:56.897Z,12.90
2018-07-11T03:13:22.813Z,13.00
2018-07-11T03:15:48.748Z,13.00
2018-07-11T03:18:14.662Z,13.10
2018-07-11T03:20:41.314Z,13.30
2018-07-11T03:23:07.264Z,13.20
2018-07-11T03:25:33.173Z,13.30
2018-07-11T03:27:59.112Z,13.50
2018-07-11T03:30:25.766Z,13.70
2018-07-11T03:32:51.690Z,13.60
2018-07-11T03:35:17.590Z,13.70
2018-07-11T03:37:44.275Z,13.80
2018-07-11T03:40:10.182Z,13.80
2018-07-11T03:42:36.122Z,13.90
2018-07-11T03:45:02.089Z,13.90
2018-07-11T03:47:27.985Z,14.00
2018-07-11T03:49:53.916Z,14.00
2018-07-11T03:52:19.818Z,14.10
2018-07-11T03:54:45.792Z,14.20
2018-07-11T03:57:12.443Z,14.30
2018-07-11T03:59:38.364Z,14.30
2018-07-11T04:02:04.267Z,14.30
2018-07-11T04:04:30.952Z,14.40
2018-07-11T04:06:56.881Z,14.40
2018-07-11T04:09:22.804Z,14.40
2018-07-11T04:11:48.745Z,14.40
2018-07-11T04:14:14.657Z,14.40
2018-07-11T04:16:40.591Z,14.40
2018-07-11T04:19:06.539Z,14.40
2018-07-11T04:21:33.203Z,14.40
2018-07-11T04:23:59.127Z,14.40
2018-07-11T04:26:25.060Z,14.50
2018-07-11T04:28:51.031Z,14.70
2018-07-11T04:31:17.142Z,14.70
2018-07-11T04:33:43.051Z,14.90
2018-07-11T04:36:08.998Z,14.90
2018-07-11T04:38:34.927Z,15.00
2018-07-11T04:43:33.113Z,15.20
2018-07-11T04:45:59.020Z,15.40
2018-07-11T04:48:24.943Z,15.40
2018-07-11T04:50:50.849Z,15.50
2018-07-11T04:53:16.788Z,15.70
2018-07-11T04:55:42.693Z,15.80
2018-07-11T04:58:08.585Z,15.90
2018-07-11T05:00:34.501Z,15.90
2018-07-11T05:03:00.404Z,16.00
2018-07-11T05:05:26.349Z,16.00
2018-07-11T05:07:52.258Z,16.00
2018-07-11T05:10:18.178Z,15.90
2018-07-11T05:12:44.081Z,16.00
2018-07-11T05:15:10.742Z,16.00
2018-07-11T05:17:36.651Z,16.00
2018-07-11T05:20:02.584Z,16.10
2018-07-11T05:22:28.486Z,16.20
2018-07-11T05:24:55.145Z,16.30
2018-07-11T05:27:21.068Z,16.30
2018-07-11T05:29:46.965Z,16.40
2018-07-11T05:32:13.623Z,16.60
2018-07-11T05:34:39.530Z,16.60
2018-07-11T05:37:06.210Z,16.80
2018-07-11T05:39:32.106Z,16.70
2018-07-11T05:41:58.027Z,16.80
2018-07-11T05:44:23.939Z,16.90
2018-07-11T05:46:50.613Z,17.10
2018-07-11T05:49:16.534Z,17.10
2018-07-11T05:51:42.441Z,17.40
2018-07-11T05:54:08.370Z,17.40
2018-07-11T05:56:34.271Z,17.20
2018-07-11T05:59:00.196Z,17.20
2018-07-11T06:01:26.093Z,17.30
2018-07-11T06:03:52.763Z,17.50
2018-07-11T06:06:18.668Z,17.50
2018-07-11T06:08:45.314Z,17.70
2018-07-11T06:11:11.206Z,17.70
2018-07-11T06:13:37.902Z,18.00
2018-07-11T06:16:03.792Z,18.00
2018-07-11T06:18:29.719Z,18.30
2018-07-11T06:20:55.631Z,18.60
2018-07-11T06:23:21.537Z,18.80
2018-07-11T06:25:48.204Z,19.00
2018-07-11T06:28:14.103Z,18.90
2018-07-11T06:30:40.763Z,19.10
2018-07-11T06:33:06.684Z,19.10
2018-07-11T06:35:32.617Z,19.30
2018-07-11T06:37:58.576Z,19.40
2018-07-11T06:40:24.483Z,19.70
2018-07-11T06:42:50.382Z,20.00
2018-07-11T06:45:16.284Z,20.50
2018-07-11T06:47:42.208Z,21.10
2018-07-11T06:50:08.109Z,21.30
2018-07-11T06:52:34.768Z,22.20
2018-07-11T06:55:00.672Z,22.20
2018-07-11T06:57:27.371Z,22.10
2018-07-11T06:59:53.274Z,22.10
2018-07-11T07:02:19.189Z,21.70
2018-07-11T07:04:45.094Z,21.80
2018-07-11T07:07:11.005Z,21.70
2018-07-11T07:09:37.678Z,21.60
2018-07-11T07:12:03.588Z,21.60
2018-07-11T07:14:29.519Z,22.10
2018-07-11T07:16:55.422Z,22.30
2018-07-11T07:19:21.357Z,21.30
2018-07-11T07:21:47.260Z,20.80
2018-07-11T07:24:13.191Z,20.80
2018-07-11T07:26:39.095Z,21.50
2018-07-11T07:29:05.071Z,22.20
2018-07-11T07:31:30.957Z,21.90
2018-07-11T07:33:56.854Z,21.20
2018-07-11T07:36:22.793Z,20.60
2018-07-11T07:38:48.696Z,20.20
2018-07-11T07:41:15.354Z,19.40
2018-07-11T07:43:41.266Z,19.40
2018-07-11T07:46:07.195Z,19.10
2018-07-11T07:48:33.106Z,19.10
2018-07-11T07:50:59.039Z,19.00
2018-07-11T07:53:24.950Z,19.00
2018-07-11T07:55:50.861Z,18.90
2018-07-11T07:58:16.791Z,19.00
2018-07-11T08:00:42.683Z,19.10
2018-07-11T08:03:08.603Z,19.40
2018-07-11T08:05:34.500Z,19.40
2018-07-11T08:08:01.159Z,19.60
2018-07-11T08:10:27.064Z,19.60
2018-07-11T08:12:52.999Z,19.60
2018-07-11T08:15:18.903Z,19.60
2018-07-11T08:17:44.805Z,19.60
2018-07-11T08:20:10.739Z,19.70
2018-07-11T08:22:36.646Z,19.60
2018-07-11T08:25:02.572Z,19.90
2018-07-11T08:27:28.551Z,20.10
2018-07-11T08:29:54.427Z,20.20
2018-07-11T08:32:20.321Z,20.10
2018-07-11T08:34:46.249Z,19.70
2018-07-11T08:37:12.170Z,19.80
2018-07-11T08:39:38.091Z,19.90
2018-07-11T08:42:04.037Z,19.90
2018-07-11T08:44:29.963Z,19.90
2018-07-11T08:46:55.896Z,20.10
2018-07-11T08:49:21.798Z,20.40
2018-07-11T08:51:47.718Z,22.30
2018-07-11T08:54:13.635Z,23.10
2018-07-11T08:56:39.551Z,22.70
2018-07-11T08:59:05.441Z,22.20
2018-07-11T09:01:31.367Z,22.10
2018-07-11T09:03:57.274Z,21.80
2018-07-11T09:06:23.931Z,21.80
2018-07-11T09:08:49.849Z,21.80
2018-07-11T09:11:15.772Z,21.90
2018-07-11T09:13:41.689Z,21.60
2018-07-11T09:16:07.620Z,21.00
2018-07-11T09:18:33.532Z,20.90
2018-07-11T09:20:59.458Z,20.90
2018-07-11T09:23:25.361Z,20.60
2018-07-11T09:25:52.007Z,20.50
2018-07-11T09:28:18.673Z,20.50
2018-07-11T09:30:44.651Z,20.50
2018-07-11T09:33:11.319Z,21.00
2018-07-11T09:35:37.219Z,21.00
2018-07-11T09:38:03.881Z,20.90
2018-07-11T09:40:29.792Z,20.90
2018-07-11T09:42:55.730Z,20.60
2018-07-11T09:45:21.628Z,20.90
2018-07-11T09:47:47.562Z,22.00
2018-07-11T09:50:13.496Z,23.50
2018-07-11T09:52:39.382Z,23.50
2018-07-11T09:55:06.054Z,22.50
2018-07-11T09:57:31.961Z,22.50
2018-07-11T09:59:57.886Z,22.90
2018-07-11T10:02:23.798Z,24.00
2018-07-11T10:04:49.718Z,25.10
2018-07-11T10:07:16.355Z,25.90
2018-07-11T10:09:43.027Z,25.40
2018-07-11T10:12:08.935Z,25.40
2018-07-11T10:14:34.869Z,25.20
2018-07-11T10:17:00.792Z,24.40
2018-07-11T10:19:26.748Z,23.40
2018-07-11T10:21:52.648Z,22.70
2018-07-11T10:24:18.558Z,22.60
2018-07-11T10:26:44.485Z,23.10
2018-07-11T10:29:10.399Z,23.40
2018-07-11T10:31:36.327Z,23.80
2018-07-11T10:34:02.236Z,23.90
2018-07-11T10:36:28.174Z,23.80
2018-07-11T10:38:54.079Z,23.40
2018-07-11T10:41:19.974Z,23.70
2018-07-11T10:43:46.643Z,23.70
2018-07-11T10:46:12.560Z,23.70
2018-07-11T10:48:38.491Z,23.50
2018-07-11T10:51:04.392Z,23.20
2018-07-11T10:53:30.335Z,22.90
2018-07-11T10:55:56.241Z,22.80
2018-07-11T10:58:22.166Z,22.80
2018-07-11T11:01:05.032Z,22.70
2018-07-11T11:03:14.014Z,22.40
2018-07-11T11:05:39.931Z,22.40
2018-07-11T11:08:06.002Z,22.50
2018-07-11T11:10:31.799Z,22.70
2018-07-11T11:12:57.702Z,22.80
2018-07-11T11:15:23.626Z,22.90
2018-07-11T11:17:49.536Z,23.20
2018-07-11T11:20:15.476Z,23.70
2018-07-11T11:22:41.399Z,23.90
2018-07-11T11:25:07.329Z,24.00
2018-07-11T11:27:33.237Z,23.60
2018-07-11T11:29:59.179Z,23.40
2018-07-11T11:32:25.092Z,23.10
2018-07-11T11:34:50.985Z,22.80
2018-07-11T11:37:16.904Z,22.50
2018-07-11T11:39:42.814Z,22.50
2018-07-11T11:42:09.001Z,22.70
2018-07-11T11:44:34.684Z,23.10
2018-07-11T11:47:00.617Z,23.10
2018-07-11T11:49:26.532Z,23.20
2018-07-11T11:51:52.436Z,23.10
2018-07-11T11:54:18.413Z,23.10
2018-07-11T11:56:44.316Z,22.90
2018-07-11T11:59:10.237Z,22.70
2018-07-11T12:01:36.176Z,22.80
2018-07-11T12:04:02.856Z,22.50
2018-07-11T12:06:28.762Z,22.50
2018-07-11T12:08:55.414Z,22.20
2018-07-11T12:11:21.351Z,22.20
2018-07-11T12:13:47.259Z,22.00
2018-07-11T12:16:13.182Z,21.90
2018-07-11T12:18:39.099Z,21.80
2018-07-11T12:21:05.056Z,21.80
2018-07-11T12:23:30.970Z,21.80
2018-07-11T12:25:56.910Z,21.70
2018-07-11T12:28:22.812Z,21.70
2018-07-11T12:30:48.750Z,21.80
2018-07-11T12:33:14.681Z,21.80
2018-07-11T12:35:40.608Z,22.00
2018-07-11T12:38:06.561Z,22.00
2018-07-11T12:40:33.207Z,21.90
2018-07-11T12:42:59.175Z,21.90
2018-07-11T12:45:25.080Z,21.90
2018-07-11T12:47:51.016Z,21.80
2018-07-11T12:50:16.918Z,21.70
2018-07-11T12:52:42.837Z,21.50
2018-07-11T12:55:08.763Z,21.50
2018-07-11T12:57:34.690Z,21.40
2018-07-11T13:00:00.600Z,21.20
2018-07-11T13:02:26.524Z,21.10
2018-07-11T13:04:52.421Z,21.00
2018-07-11T13:07:18.332Z,21.00
2018-07-11T13:09:45.003Z,20.90
2018-07-11T13:12:10.975Z,20.90
2018-07-11T13:14:36.910Z,20.80
2018-07-11T13:17:03.547Z,20.90
2018-07-11T13:19:30.203Z,20.90
2018-07-11T13:21:56.150Z,20.90
2018-07-11T13:24:22.094Z,21.00
2018-07-11T13:26:48.011Z,20.90
2018-07-11T13:29:13.941Z,20.90
2018-07-11T13:31:39.870Z,20.80
2018-07-11T13:34:05.781Z,20.80
2018-07-11T13:36:31.709Z,20.80
2018-07-11T13:38:57.638Z,20.70
2018-07-11T13:41:23.573Z,20.70
2018-07-11T13:43:50.220Z,20.80
2018-07-11T13:46:16.912Z,20.90
2018-07-11T13:48:42.831Z,20.90
2018-07-11T13:51:08.766Z,20.90
2018-07-11T13:53:34.678Z,20.90
2018-07-11T13:56:00.594Z,20.90
2018-07-11T13:58:26.512Z,20.80
2018-07-11T14:00:52.425Z,20.80
2018-07-11T14:03:18.344Z,20.90
2018-07-11T14:05:44.252Z,20.90
2018-07-11T14:08:10.179Z,20.90
2018-07-11T14:10:36.082Z,21.00
2018-07-11T14:13:02.003Z,21.00
2018-07-11T14:15:28.655Z,21.10
2018-07-11T14:17:54.621Z,21.10
2018-07-11T14:20:20.538Z,21.20
2018-07-11T14:22:46.467Z,21.20
2018-07-11T14:25:12.403Z,21.30
2018-07-11T14:27:38.342Z,21.30
2018-07-11T14:30:04.261Z,21.30
2018-07-11T14:32:30.911Z,21.20
2018-07-11T14:34:57.575Z,21.40
2018-07-11T14:37:23.479Z,21.40
2018-07-11T14:39:49.453Z,21.60
2018-07-11T14:42:15.332Z,21.80
2018-07-11T14:44:41.260Z,22.10
2018-07-11T14:47:07.175Z,22.10
2018-07-11T14:49:33.078Z,22.20
2018-07-11T14:51:59.058Z,22.40
2018-07-11T14:54:24.962Z,22.60
2018-07-11T14:56:50.898Z,22.70
2018-07-11T14:59:16.798Z,22.80
2018-07-11T15:01:42.734Z,22.70
2018-07-11T15:04:08.656Z,22.70
2018-07-11T15:06:34.558Z,22.60
2018-07-11T15:09:00.651Z,22.70
2018-07-11T15:11:26.416Z,22.80
2018-07-11T15:13:52.350Z,22.70
2018-07-11T15:16:18.254Z,22.50
2018-07-11T15:18:44.170Z,22.50
2018-07-11T15:21:10.088Z,22.30
2018-07-11T15:23:36.025Z,22.30
2018-07-11T15:26:01.940Z,22.40
2018-07-11T15:28:27.850Z,22.50
2018-07-11T15:30:53.783Z,22.60
2018-07-11T15:33:19.692Z,22.60
2018-07-11T15:35:45.618Z,22.60
2018-07-11T15:38:11.535Z,22.60
2018-07-11T15:40:37.466Z,22.80
2018-07-11T15:43:03.383Z,22.90
2018-07-11T15:45:29.435Z,23.00
2018-07-11T15:47:55.294Z,23.10
2018-07-11T15:50:21.175Z,23.20
2018-07-11T15:52:47.854Z,23.20
2018-07-11T15:55:14.492Z,23.10
2018-07-11T15:57:41.157Z,23.10
2018-07-11T16:00:14.036Z,23.00
2018-07-11T16:02:39.962Z,23.20
2018-07-11T16:05:05.942Z,23.10
2018-07-11T16:07:31.816Z,23.10
2018-07-11T16:09:57.713Z,22.90
2018-07-11T16:12:23.643Z,22.90
2018-07-11T16:14:49.556Z,22.70
2018-07-11T16:17:15.469Z,22.60
2018-07-11T16:19:41.382Z,22.60
2018-07-11T16:22:08.029Z,22.70
2018-07-11T16:24:33.971Z,22.70
2018-07-11T16:26:59.887Z,22.70
2018-07-11T16:29:25.825Z,22.70
2018-07-11T16:31:51.727Z,22.50
2018-07-11T16:34:17.725Z,22.50
2018-07-11T16:36:43.637Z,22.50
2018-07-11T16:39:10.309Z,22.40
2018-07-11T16:41:36.205Z,22.40
2018-07-11T16:44:02.851Z,22.40
2018-07-11T16:46:29.535Z,22.40
2018-07-11T16:48:55.453Z,22.40
2018-07-11T16:51:21.374Z,22.30
2018-07-11T16:53:47.308Z,22.30
2018-07-11T16:56:13.234Z,22.10
2018-07-11T16:58:39.142Z,21.90
2018-07-11T17:01:05.081Z,21.80
2018-07-11T17:03:31.009Z,21.70
2018-07-11T17:05:56.946Z,21.80
2018-07-11T17:08:23.590Z,21.70
2018-07-11T17:10:50.279Z,21.70
2018-07-11T17:13:16.171Z,21.70
2018-07-11T17:15:42.084Z,21.90
2018-07-11T17:18:08.752Z,21.70
2018-07-11T17:20:34.653Z,21.70
2018-07-11T17:23:00.607Z,21.70
2018-07-11T17:25:26.519Z,21.60
2018-07-11T17:27:52.433Z,21.50
2018-07-11T17:30:18.366Z,21.50
2018-07-11T17:32:44.318Z,21.50
2018-07-11T17:35:10.984Z,21.50
2018-07-11T17:37:37.665Z,21.50
2018-07-11T17:40:03.594Z,21.40
2018-07-11T17:42:29.532Z,21.40
2018-07-11T17:44:55.459Z,21.30
2018-07-11T17:47:21.378Z,21.30
2018-07-11T17:49:47.291Z,21.20
2018-07-11T17:52:13.206Z,21.30
2018-07-11T17:54:39.146Z,21.30
2018-07-11T17:57:05.047Z,21.30
2018-07-11T17:59:31.002Z,21.40
2018-07-11T18:01:56.921Z,21.40
2018-07-11T18:04:22.833Z,21.30
2018-07-11T18:06:48.752Z,21.40
2018-07-11T18:09:14.697Z,21.30
2018-07-11T18:11:40.618Z,21.30
2018-07-11T18:14:07.323Z,21.10
2018-07-11T18:16:33.204Z,21.10
2018-07-11T18:18:59.130Z,21.00
2018-07-11T18:21:25.055Z,20.90
2018-07-11T18:23:50.989Z,20.80
2018-07-11T18:26:16.912Z,20.70
2018-07-11T18:28:42.836Z,20.60
2018-07-11T18:31:08.783Z,20.60
2018-07-11T18:33:34.682Z,20.50
2018-07-11T18:36:00.620Z,20.50
2018-07-11T18:38:26.528Z,20.50
2018-07-11T18:40:52.557Z,20.50
2018-07-11T18:43:19.149Z,20.50
2018-07-11T18:45:45.076Z,20.40
2018-07-11T18:48:11.001Z,20.30
2018-07-11T18:50:36.935Z,20.30
2018-07-11T18:53:02.852Z,20.20
2018-07-11T18:55:28.764Z,20.20
2018-07-11T18:57:54.811Z,20.10
2018-07-11T19:00:20.640Z,20.00
2018-07-11T19:02:46.559Z,20.00
2018-07-11T19:05:12.522Z,19.90
2018-07-11T19:07:39.201Z,19.80
2018-07-11T19:10:05.131Z,19.80
2018-07-11T19:12:31.058Z,19.70
2018-07-11T19:14:57.006Z,19.70
2018-07-11T19:17:22.930Z,19.70
2018-07-11T19:19:48.857Z,19.70
2018-07-11T19:22:14.785Z,19.60
2018-07-11T19:24:40.705Z,19.60
2018-07-11T19:27:06.617Z,19.50
2018-07-11T19:29:32.563Z,19.50
2018-07-11T19:31:59.206Z,19.40
2018-07-11T19:34:25.873Z,19.30
2018-07-11T19:36:51.774Z,19.30
2018-07-11T19:39:18.437Z,19.30
2018-07-11T19:41:44.349Z,19.30
2018-07-11T19:44:10.276Z,19.20
2018-07-11T19:46:36.182Z,19.20
2018-07-11T19:49:02.112Z,19.20
2018-07-11T19:51:28.041Z,19.10
2018-07-11T19:53:53.951Z,19.10
2018-07-11T19:56:19.949Z,19.00
2018-07-11T19:58:45.834Z,19.00
2018-07-11T20:01:11.763Z,18.90
2018-07-11T20:03:37.670Z,18.80
2018-07-11T20:06:03.584Z,18.80
2018-07-11T20:08:29.517Z,18.80
2018-07-11T20:10:55.435Z,18.60
2018-07-11T20:13:21.405Z,18.60
2018-07-11T20:15:47.405Z,18.60
2018-07-11T20:18:14.108Z,18.50
2018-07-11T20:20:40.025Z,18.40
2018-07-11T20:23:05.971Z,18.30
2018-07-11T20:25:31.878Z,18.30
2018-07-11T20:27:57.836Z,18.10
2018-07-11T20:30:23.785Z,18.10
2018-07-11T20:32:49.670Z,18.00
2018-07-11T20:35:15.601Z,18.00
2018-07-11T20:37:41.521Z,17.90
2018-07-11T20:40:07.459Z,17.90
2018-07-11T20:42:34.103Z,17.90
2018-07-11T20:45:00.766Z,17.80
2018-07-11T20:47:26.711Z,17.70
2018-07-11T20:49:52.642Z,17.70
2018-07-11T20:52:18.570Z,17.70
2018-07-11T20:54:44.534Z,17.70
2018-07-11T20:57:10.443Z,17.60
2018-07-11T20:59:36.359Z,17.50
2018-07-11T21:02:02.280Z,17.40
2018-07-11T21:04:28.976Z,17.30
2018-07-11T21:06:55.642Z,17.20
2018-07-11T21:09:21.541Z,17.20
2018-07-11T21:11:47.471Z,17.20
2018-07-11T21:14:14.132Z,17.10
2018-07-11T21:16:40.098Z,17.10
2018-07-11T21:19:06.000Z,17.10
2018-07-11T21:21:32.664Z,17.00
2018-07-11T21:23:58.604Z,17.00
2018-07-11T21:26:24.573Z,17.00
2018-07-11T21:28:51.211Z,16.90
2018-07-11T21:31:17.896Z,17.00
2018-07-11T21:33:43.823Z,16.90
2018-07-11T21:36:09.734Z,16.90
2018-07-11T21:38:35.675Z,16.80
2018-07-11T21:41:01.584Z,16.80
2018-07-11T21:43:27.505Z,16.70
2018-07-11T21:45:53.414Z,16.70
2018-07-11T21:48:19.334Z,16.70
2018-07-11T21:50:45.245Z,16.70
2018-07-11T21:53:11.186Z,16.70
2018-07-11T21:55:37.098Z,16.70
2018-07-11T21:58:03.024Z,16.60
2018-07-11T22:00:28.963Z,16.60
2018-07-11T22:02:54.883Z,16.50
2018-07-11T22:05:20.817Z,16.50
2018-07-11T22:07:46.732Z,16.50
2018-07-11T22:10:12.656Z,16.40
2018-07-11T22:12:38.580Z,16.40
2018-07-11T22:15:04.522Z,16.40
2018-07-11T22:20:03.707Z,16.40
2018-07-11T22:22:29.628Z,16.40
2018-07-11T22:24:55.540Z,16.30
2018-07-11T22:27:21.475Z,16.20
2018-07-11T22:29:47.389Z,16.20
2018-07-11T22:32:13.318Z,16.10
2018-07-11T22:34:39.253Z,16.00
2018-07-11T22:37:05.187Z,16.00
2018-07-11T22:39:31.096Z,16.00
2018-07-11T22:41:57.025Z,15.90
2018-07-11T22:44:22.918Z,16.00
2018-07-11T22:46:48.833Z,15.90
2018-07-11T22:49:14.778Z,15.80
2018-07-11T22:51:40.682Z,15.80
2018-07-11T22:54:06.619Z,15.80
2018-07-11T22:56:32.543Z,15.90
2018-07-11T22:58:58.476Z,15.90
2018-07-11T23:01:24.392Z,15.90
2018-07-11T23:03:50.334Z,15.90
2018-07-11T23:06:16.984Z,15.80
2018-07-11T23:08:43.667Z,15.80
2018-07-11T23:11:09.588Z,15.80
2018-07-11T23:13:35.484Z,15.80
2018-07-11T23:18:34.907Z,15.80
2018-07-11T23:21:00.827Z,15.80
2018-07-11T23:23:26.738Z,15.80
2018-07-11T23:25:53.401Z,15.70
2018-07-11T23:28:19.319Z,15.70
2018-07-11T23:30:45.238Z,15.70
2018-07-11T23:33:11.162Z,15.70
2018-07-11T23:35:37.084Z,15.70
2018-07-11T23:38:03.031Z,15.70
2018-07-11T23:40:28.964Z,15.70
2018-07-11T23:42:54.895Z,15.70
2018-07-11T23:45:20.818Z,15.60
2018-07-11T23:47:46.742Z,15.60
2018-07-11T23:50:12.646Z,15.50
2018-07-11T23:52:38.559Z,15.50
2018-07-11T23:55:04.491Z,15.50
2018-07-11T23:57:30.415Z,15.50
2018-07-11T23:59:56.335Z,15.50
